Impacts TAF Board
For situational awareness. Not to be used for flight planning purposes.
IDs:

KSLC - Salt Lake City Intl, UT, US

Issued at 0520 UTC 25 May 2020
Updated at 0828 UTC 25 May 2020
Potential Impact None Slight Moderate High
Time0754Z 25/09Z 25/10Z 25/11Z 25/12Z 25/13Z 25/14Z 25/15Z 25/16Z 25/17Z 25/18Z 25/19Z 25/20Z 25/21Z>>
Type OBS PRVL PRVL PRVL PRVL PRVL PRVL PRVL PRVL PRVL PRVL PRVL PRVL PRVL
VIS 10 >6 >6 >6 >6 >6 >6 >6 >6 >6 >6 >6 >6 >6
CIG -- -- -- -- -- -- -- -- -- -- -- -- -- --
Cover FEW SKC SKC SKC SKC SKC SKC SKC SKC SKC FEW FEW FEW FEW
FltCat VFR VFR VFR VFR VFR VFR VFR VFR VFR VFR VFR VFR VFR VFR
WX -- -- -- -- -- -- -- -- -- -- -- -- -- --
WDir 170 150 150 150 150 150 150 150 150 150 320 320 320 320
WSpd 3 5 5 5 5 5 5 5 5 5 8 8 8 8
WGst -- -- -- -- -- -- -- -- -- -- -- -- -- --
Raw TAF
KSLC 250520Z 2506/2612 15005KT P6SM SKC
  FM251800 32008KT P6SM FEW100
  FM260400 15005KT P6SM FEW220


Raw METAR
KSLC 250754Z 17003KT 10SM FEW130 11/01 A3014 RMK AO2 SLP181 T01060011
KSLC 250654Z 11003KT 10SM FEW080 FEW130 11/02 A3014 RMK AO2 SLP181 T01110022 401830061
KSLC 250554Z 17003KT 10SM FEW080 SCT130 11/02 A3013 RMK AO2 SLP178 T01110017 10178 20111 51007

METAR Board
Radar Display
Forecast Discussion
For situational awareness. Not to be used for flight planning purposes.